createdAt,value
2023-05-17T00:01:48.432Z,17.16
2023-05-17T00:04:15.566Z,17.12
2023-05-17T00:06:43.028Z,17.12
2023-05-17T00:09:10.062Z,17.15
2023-05-17T00:11:36.968Z,17.16
2023-05-17T00:14:03.935Z,17.14
2023-05-17T00:16:30.875Z,17.10
2023-05-17T00:18:57.937Z,17.06
2023-05-17T00:21:24.839Z,17.02
2023-05-17T00:23:51.696Z,17.02
2023-05-17T00:26:18.552Z,17.00
2023-05-17T00:28:45.567Z,16.96
2023-05-17T00:31:14.401Z,16.91
2023-05-17T00:33:41.379Z,16.86
2023-05-17T00:36:08.402Z,16.81
2023-05-17T00:38:35.331Z,16.73
2023-05-17T00:41:02.255Z,16.71
2023-05-17T00:43:29.077Z,16.73
2023-05-17T00:45:55.977Z,16.73
2023-05-17T00:48:25.885Z,16.70
2023-05-17T00:50:53.723Z,16.69
2023-05-17T00:53:20.634Z,16.67
2023-05-17T00:55:47.537Z,16.66
2023-05-17T00:58:14.807Z,16.71
2023-05-17T01:00:41.906Z,16.78
2023-05-17T01:03:08.949Z,16.80
2023-05-17T01:05:36.439Z,16.77
2023-05-17T01:08:03.383Z,16.75
2023-05-17T01:10:54.575Z,16.72
2023-05-17T01:13:30.148Z,16.67
2023-05-17T01:16:02.587Z,16.67
2023-05-17T01:18:40.714Z,16.70
2023-05-17T01:21:22.960Z,16.68
2023-05-17T01:23:56.468Z,16.63
2023-05-17T01:26:39.543Z,16.55
2023-05-17T01:29:06.460Z,16.48
2023-05-17T01:31:33.414Z,16.49
2023-05-17T01:34:01.611Z,16.53
2023-05-17T01:36:28.612Z,16.53
2023-05-17T01:38:55.624Z,16.48
2023-05-17T01:41:39.475Z,16.41
2023-05-17T01:45:44.520Z,16.32
2023-05-17T01:48:17.615Z,16.29
2023-05-17T01:50:44.563Z,16.28
2023-05-17T01:53:16.355Z,16.21
2023-05-17T01:55:50.397Z,16.18
2023-05-17T01:58:18.918Z,16.15
2023-05-17T02:00:46.735Z,16.08
2023-05-17T02:03:17.733Z,16.03
2023-05-17T02:05:44.834Z,16.01
2023-05-17T02:08:12.175Z,15.98
2023-05-17T02:10:39.100Z,15.92
2023-05-17T02:13:06.115Z,15.85
2023-05-17T02:15:33.104Z,15.79
2023-05-17T02:18:00.153Z,15.71
2023-05-17T02:20:27.354Z,15.71
2023-05-17T02:22:55.659Z,15.72
2023-05-17T02:25:22.704Z,15.69
2023-05-17T02:27:49.670Z,15.61
2023-05-17T02:30:18.376Z,15.51
2023-05-17T02:32:45.723Z,15.43
2023-05-17T02:35:14.353Z,15.40
2023-05-17T02:37:41.542Z,15.38
2023-05-17T02:40:10.014Z,15.35
2023-05-17T02:42:37.016Z,15.29
2023-05-17T02:45:04.351Z,15.24
2023-05-17T02:47:31.430Z,15.27
2023-05-17T02:49:58.553Z,15.33
2023-05-17T02:52:25.739Z,15.35
2023-05-17T02:54:55.791Z,15.34
2023-05-17T02:57:22.866Z,15.31
2023-05-17T02:59:50.305Z,15.28
2023-05-17T03:02:17.496Z,15.30
2023-05-17T03:04:47.181Z,15.34
2023-05-17T03:07:14.153Z,15.30
2023-05-17T03:09:43.032Z,15.21
2023-05-17T03:12:10.154Z,15.10
2023-05-17T03:14:37.266Z,15.02
2023-05-17T03:17:04.462Z,15.00
2023-05-17T03:19:33.944Z,15.02
2023-05-17T03:22:02.253Z,14.99
2023-05-17T03:24:31.240Z,14.94
2023-05-17T03:26:58.272Z,14.87
2023-05-17T03:29:25.352Z,14.83
2023-05-17T03:31:52.716Z,14.85
2023-05-17T03:34:19.787Z,14.91
2023-05-17T03:36:46.741Z,14.93
2023-05-17T03:39:13.676Z,14.93
2023-05-17T03:41:42.283Z,14.96
2023-05-17T03:44:09.760Z,15.03
2023-05-17T03:46:37.143Z,15.09
2023-05-17T03:49:04.656Z,15.15
2023-05-17T03:51:32.849Z,15.19
2023-05-17T03:54:01.129Z,15.19
2023-05-17T03:56:29.683Z,15.21
2023-05-17T03:58:56.708Z,15.27
2023-05-17T04:01:23.759Z,15.36
2023-05-17T04:03:50.859Z,15.42
2023-05-17T04:06:19.282Z,15.43
2023-05-17T04:08:46.244Z,15.41
2023-05-17T04:11:14.210Z,15.38
2023-05-17T04:13:41.641Z,15.42
2023-05-17T04:16:09.135Z,15.47
2023-05-17T04:18:37.236Z,15.50
2023-05-17T04:21:04.811Z,15.48
2023-05-17T04:23:32.471Z,15.40
2023-05-17T04:26:00.029Z,15.33
2023-05-17T04:28:28.103Z,15.36
2023-05-17T04:30:56.000Z,15.44
2023-05-17T04:33:24.505Z,15.48
2023-05-17T04:35:52.249Z,15.48
2023-05-17T04:38:19.486Z,15.48
2023-05-17T04:40:46.410Z,15.49
2023-05-17T04:43:13.671Z,15.52
2023-05-17T04:45:41.525Z,15.52
2023-05-17T04:48:09.049Z,15.53
2023-05-17T04:50:36.075Z,15.52
2023-05-17T04:53:04.246Z,15.51
2023-05-17T04:55:35.996Z,15.53
2023-05-17T04:58:03.019Z,15.60
2023-05-17T05:00:30.306Z,15.64
2023-05-17T05:03:00.338Z,15.64
2023-05-17T05:05:27.732Z,15.60
2023-05-17T05:07:55.350Z,15.55
2023-05-17T05:10:22.433Z,15.56
2023-05-17T05:12:49.868Z,15.60
2023-05-17T05:15:16.799Z,15.57
2023-05-17T05:17:48.739Z,15.51
2023-05-17T05:20:15.890Z,15.45
2023-05-17T05:22:43.384Z,15.39
2023-05-17T05:25:10.622Z,15.40
2023-05-17T05:27:37.616Z,15.46
2023-05-17T05:30:04.889Z,15.49
2023-05-17T05:32:32.070Z,15.51
2023-05-17T05:34:59.880Z,15.51
2023-05-17T05:37:26.973Z,15.51
2023-05-17T05:39:53.967Z,15.57
2023-05-17T05:42:20.944Z,15.65
2023-05-17T05:44:48.139Z,15.68
2023-05-17T05:47:15.917Z,15.67
2023-05-17T05:49:42.864Z,15.66
2023-05-17T05:52:10.298Z,15.67
2023-05-17T05:54:37.440Z,15.72
2023-05-17T05:57:04.690Z,15.78
2023-05-17T05:59:31.605Z,15.82
2023-05-17T06:01:58.885Z,15.85
2023-05-17T06:04:36.318Z,15.85
2023-05-17T06:07:11.230Z,15.85
2023-05-17T06:09:38.146Z,15.87
2023-05-17T06:12:05.217Z,15.91
2023-05-17T06:14:32.158Z,15.93
2023-05-17T06:16:59.024Z,15.96
2023-05-17T06:19:26.229Z,15.99
2023-05-17T06:21:53.296Z,16.03
2023-05-17T06:24:20.128Z,16.09
2023-05-17T06:26:49.908Z,16.18
2023-05-17T06:29:16.819Z,16.26
2023-05-17T06:31:43.681Z,16.27
2023-05-17T06:34:10.634Z,16.26
2023-05-17T06:36:38.682Z,16.21
2023-05-17T06:39:05.802Z,16.14
2023-05-17T06:41:32.775Z,16.12
2023-05-17T06:43:59.733Z,16.15
2023-05-17T06:46:27.209Z,16.18
2023-05-17T06:48:54.932Z,16.18
2023-05-17T06:51:21.957Z,16.16
2023-05-17T06:53:48.815Z,16.12
2023-05-17T06:56:22.135Z,16.08
2023-05-17T06:58:49.726Z,16.11
2023-05-17T07:01:17.203Z,16.18
2023-05-17T07:03:46.732Z,16.23
2023-05-17T07:06:13.774Z,16.24
2023-05-17T07:08:41.174Z,16.18
2023-05-17T07:11:08.176Z,16.12
2023-05-17T07:13:35.566Z,16.06
2023-05-17T07:16:02.534Z,16.09
2023-05-17T07:18:29.742Z,16.17
2023-05-17T07:20:56.874Z,16.23
2023-05-17T07:23:23.902Z,16.25
2023-05-17T07:25:52.484Z,16.26
2023-05-17T07:28:19.825Z,16.27
2023-05-17T07:30:47.054Z,16.31
2023-05-17T07:33:15.012Z,16.42
2023-05-17T07:35:41.904Z,16.52
2023-05-17T07:38:10.905Z,16.62
2023-05-17T07:40:40.064Z,16.70
2023-05-17T07:43:07.707Z,16.75
2023-05-17T07:45:34.675Z,16.80
2023-05-17T07:48:01.866Z,16.84
2023-05-17T07:50:29.316Z,16.86
2023-05-17T07:52:56.585Z,16.93
2023-05-17T07:55:23.515Z,17.01
2023-05-17T07:57:50.843Z,17.03
2023-05-17T08:00:19.454Z,17.09
2023-05-17T08:02:52.452Z,17.23
2023-05-17T08:05:19.393Z,17.39
2023-05-17T08:07:46.786Z,17.49
2023-05-17T08:10:13.662Z,17.57
2023-05-17T08:12:40.793Z,17.69
2023-05-17T08:15:08.684Z,17.85
2023-05-17T08:17:36.222Z,17.95
2023-05-17T08:20:05.940Z,17.98
2023-05-17T08:22:32.990Z,18.01
2023-05-17T08:24:59.919Z,18.04
2023-05-17T08:27:27.249Z,18.08
2023-05-17T08:29:55.038Z,18.10
2023-05-17T08:32:23.751Z,18.11
2023-05-17T08:34:50.768Z,18.13
2023-05-17T08:37:18.794Z,18.17
2023-05-17T08:39:51.178Z,18.23
2023-05-17T08:42:21.689Z,18.29
2023-05-17T08:44:49.442Z,18.38
2023-05-17T08:47:26.044Z,18.44
2023-05-17T08:49:55.506Z,18.48
2023-05-17T09:06:36.661Z,19.57
2023-05-17T09:09:03.847Z,19.85
2023-05-17T09:11:32.468Z,19.91
2023-05-17T09:14:01.030Z,20.03
2023-05-17T09:16:30.135Z,20.15
2023-05-17T09:18:57.618Z,20.30
2023-05-17T09:21:27.514Z,20.42
2023-05-17T09:24:05.583Z,20.52
2023-05-17T09:26:42.972Z,20.60
2023-05-17T09:29:14.615Z,20.69
2023-05-17T09:48:37.835Z,21.84
2023-05-17T09:51:05.169Z,22.34
2023-05-17T09:53:37.822Z,22.41
2023-05-17T09:56:05.205Z,22.46
2023-05-17T09:58:33.041Z,22.48
2023-05-17T10:01:01.708Z,22.48
2023-05-17T10:03:37.356Z,22.38
2023-05-17T10:06:11.280Z,22.29
2023-05-17T10:08:44.123Z,22.23
2023-05-17T10:11:12.376Z,22.22
2023-05-17T10:14:17.920Z,22.22
2023-05-17T10:16:45.314Z,22.22
2023-05-17T10:19:13.204Z,22.21
2023-05-17T10:21:40.630Z,22.20
2023-05-17T10:24:07.703Z,22.20
2023-05-17T10:26:35.243Z,22.17
2023-05-17T10:29:02.577Z,22.12
2023-05-17T10:31:36.055Z,22.04
2023-05-17T10:34:04.824Z,21.98
2023-05-17T10:36:31.961Z,21.97
2023-05-17T10:38:58.948Z,21.96
2023-05-17T10:41:31.719Z,21.95
2023-05-17T10:43:58.490Z,21.92
2023-05-17T10:46:29.903Z,21.85
2023-05-17T10:48:58.333Z,21.78
2023-05-17T10:51:37.161Z,21.77
2023-05-17T10:54:11.510Z,21.79
2023-05-17T10:56:42.581Z,21.83
2023-05-17T10:59:26.244Z,21.87
2023-05-17T11:02:03.036Z,21.92
2023-05-17T11:04:43.155Z,21.95
2023-05-17T11:07:21.326Z,21.98
2023-05-17T11:09:53.762Z,22.00
2023-05-17T11:12:33.629Z,22.02
2023-05-17T11:15:08.266Z,22.02
2023-05-17T11:17:46.191Z,21.99
2023-05-17T11:20:17.039Z,21.97
2023-05-17T11:22:58.092Z,21.97
2023-05-17T11:25:29.746Z,21.98
2023-05-17T11:27:56.892Z,22.00
2023-05-17T11:30:28.877Z,22.04
2023-05-17T11:32:59.702Z,22.11
2023-05-17T11:35:28.066Z,22.20
2023-05-17T11:38:15.355Z,22.29
2023-05-17T11:40:42.583Z,22.40
2023-05-17T11:43:11.174Z,22.54
2023-05-17T11:45:56.656Z,22.68
2023-05-17T11:48:25.899Z,22.80
2023-05-17T11:50:54.621Z,22.86
2023-05-17T11:53:21.563Z,22.93
2023-05-17T11:55:52.415Z,23.02
2023-05-17T11:58:20.915Z,23.13
2023-05-17T12:00:52.362Z,23.26
2023-05-17T12:03:23.586Z,23.37
2023-05-17T12:06:00.523Z,23.48
2023-05-17T12:08:28.023Z,23.56
2023-05-17T12:10:56.610Z,23.63
2023-05-17T12:13:23.513Z,23.67
2023-05-17T12:15:56.337Z,23.68
2023-05-17T12:18:24.175Z,23.70
2023-05-17T12:20:57.630Z,23.67
2023-05-17T12:23:29.110Z,23.64
2023-05-17T12:26:09.257Z,23.63
2023-05-17T12:28:38.812Z,23.62
2023-05-17T12:31:08.483Z,23.65
2023-05-17T12:33:36.096Z,23.67
2023-05-17T12:36:03.794Z,23.71
2023-05-17T12:38:32.493Z,23.78
2023-05-17T12:41:03.025Z,23.83
2023-05-17T12:43:32.126Z,23.89
2023-05-17T12:46:03.986Z,23.95
2023-05-17T12:48:30.943Z,24.05
2023-05-17T12:50:57.635Z,24.12
2023-05-17T12:53:25.361Z,24.16
2023-05-17T12:55:56.907Z,24.21
2023-05-17T12:58:23.636Z,24.26
2023-05-17T13:00:57.937Z,24.33
2023-05-17T13:03:25.893Z,24.40
2023-05-17T13:06:05.567Z,24.45
2023-05-17T13:08:32.881Z,24.50
2023-05-17T13:11:09.758Z,24.55
2023-05-17T13:13:36.868Z,24.62
2023-05-17T13:16:03.822Z,24.69
2023-05-17T13:18:34.944Z,24.74
2023-05-17T13:21:02.312Z,24.78
2023-05-17T13:23:29.356Z,24.84
2023-05-17T13:25:56.278Z,24.89
2023-05-17T13:28:24.217Z,24.92
2023-05-17T13:30:51.985Z,24.91
2023-05-17T13:33:19.820Z,24.89
2023-05-17T13:35:46.748Z,24.85
2023-05-17T13:38:13.511Z,24.80
2023-05-17T13:40:40.436Z,24.76
2023-05-17T13:43:09.823Z,24.72
2023-05-17T13:45:36.900Z,24.72
2023-05-17T13:48:03.866Z,24.72
2023-05-17T13:50:31.159Z,24.72
2023-05-17T13:52:58.161Z,24.73
2023-05-17T13:55:24.987Z,24.72
2023-05-17T13:57:52.251Z,24.70
2023-05-17T14:02:54.802Z,24.74
2023-05-17T14:05:22.138Z,24.74
2023-05-17T14:07:49.128Z,24.72
2023-05-17T14:10:16.118Z,24.69
2023-05-17T14:12:43.848Z,24.66
2023-05-17T14:15:10.997Z,24.63
2023-05-17T14:17:38.058Z,24.59
2023-05-17T14:27:44.116Z,24.49
2023-05-17T14:30:13.610Z,24.46
2023-05-17T14:32:41.342Z,24.42
2023-05-17T14:35:08.662Z,24.39
2023-05-17T14:37:35.741Z,24.35
2023-05-17T14:40:06.596Z,24.32
2023-05-17T14:42:34.242Z,24.29
2023-05-17T14:45:01.369Z,24.25
2023-05-17T14:47:28.375Z,24.19
2023-05-17T14:49:55.348Z,24.14
2023-05-17T14:52:22.734Z,24.08
2023-05-17T14:54:52.169Z,24.01
2023-05-17T14:57:21.032Z,23.94
2023-05-17T14:59:48.449Z,23.86
2023-05-17T15:02:15.362Z,23.79
2023-05-17T15:04:42.560Z,23.71
2023-05-17T15:07:09.786Z,23.64
2023-05-17T15:09:41.676Z,23.55
2023-05-17T15:12:11.253Z,23.47
2023-05-17T15:14:40.640Z,23.39
2023-05-17T15:17:07.629Z,23.34
2023-05-17T15:19:34.626Z,23.29
2023-05-17T15:22:02.217Z,23.23
2023-05-17T15:24:29.771Z,23.18
2023-05-17T15:26:56.939Z,23.14
2023-05-17T15:29:23.817Z,23.10
2023-05-17T15:31:50.798Z,23.05
2023-05-17T15:34:18.049Z,23.00
2023-05-17T15:36:45.012Z,22.96
2023-05-17T15:39:12.074Z,22.92
2023-05-17T15:41:39.977Z,22.87
2023-05-17T15:44:08.169Z,22.82
2023-05-17T15:46:35.067Z,22.77
2023-05-17T15:49:02.086Z,22.74
2023-05-17T15:51:29.049Z,22.70
2023-05-17T15:53:56.329Z,22.66
2023-05-17T15:56:23.425Z,22.62
2023-05-17T15:58:50.616Z,22.59
2023-05-17T16:01:17.595Z,22.55
2023-05-17T16:03:44.791Z,22.52
2023-05-17T16:06:12.036Z,22.49
2023-05-17T16:08:39.031Z,22.46
2023-05-17T16:11:07.316Z,22.41
2023-05-17T16:13:34.299Z,22.37
2023-05-17T16:16:01.175Z,22.33
2023-05-17T16:18:28.635Z,22.28
2023-05-17T16:21:00.081Z,22.23
2023-05-17T16:23:29.746Z,22.18
2023-05-17T16:25:56.680Z,22.12
2023-05-17T16:28:23.704Z,22.08
2023-05-17T16:30:51.227Z,22.04
2023-05-17T16:33:20.624Z,21.99
2023-05-17T16:35:49.004Z,21.93
2023-05-17T16:38:16.831Z,21.87
2023-05-17T16:40:43.967Z,21.80
2023-05-17T16:43:15.885Z,21.73
2023-05-17T16:45:44.980Z,21.67
2023-05-17T16:48:15.293Z,21.60
2023-05-17T16:57:48.240Z,21.43
2023-05-17T17:00:15.730Z,21.36
2023-05-17T17:02:43.068Z,21.31
2023-05-17T17:05:10.609Z,21.26
2023-05-17T17:07:37.513Z,21.21
2023-05-17T17:10:04.722Z,21.15
2023-05-17T17:12:31.886Z,21.09
2023-05-17T17:14:58.887Z,21.03
2023-05-17T17:17:26.692Z,20.99
2023-05-17T17:19:53.632Z,20.94
2023-05-17T17:22:20.578Z,20.89
2023-05-17T17:24:47.722Z,20.84
2023-05-17T17:27:14.621Z,20.81
2023-05-17T17:29:41.675Z,20.77
2023-05-17T17:32:08.630Z,20.73
2023-05-17T17:34:36.051Z,20.69
2023-05-17T17:37:03.087Z,20.64
2023-05-17T17:39:29.983Z,20.61
2023-05-17T17:41:56.983Z,20.58
2023-05-17T17:44:24.295Z,20.55
2023-05-17T17:46:51.450Z,20.51
2023-05-17T17:49:18.666Z,20.48
2023-05-17T17:51:45.639Z,20.46
2023-05-17T17:54:12.630Z,20.43
2023-05-17T17:56:39.533Z,20.42
2023-05-17T17:59:06.626Z,20.42
2023-05-17T18:01:35.223Z,20.41
2023-05-17T18:04:02.193Z,20.39
2023-05-17T18:06:29.313Z,20.38
2023-05-17T18:08:57.652Z,20.38
2023-05-17T18:11:24.535Z,20.36
2023-05-17T18:13:51.789Z,20.35
2023-05-17T18:16:18.867Z,20.34
2023-05-17T18:18:47.072Z,20.34
2023-05-17T18:21:14.786Z,20.32
2023-05-17T18:23:42.055Z,20.32
2023-05-17T18:26:09.024Z,20.31
2023-05-17T18:28:42.444Z,20.30
2023-05-17T18:31:10.383Z,20.29
2023-05-17T18:33:37.672Z,20.27
2023-05-17T18:36:04.982Z,20.24
2023-05-17T18:38:31.983Z,20.21
2023-05-17T18:40:58.952Z,20.17
2023-05-17T18:43:25.916Z,20.13
2023-05-17T18:45:52.910Z,20.07
2023-05-17T18:48:22.218Z,20.04
2023-05-17T18:50:49.097Z,19.99
2023-05-17T18:53:16.079Z,19.95
2023-05-17T18:55:43.097Z,19.90
2023-05-17T18:58:09.980Z,19.86
2023-05-17T19:00:36.924Z,19.82
2023-05-17T19:03:04.599Z,19.79
2023-05-17T19:05:31.614Z,19.77
2023-05-17T19:07:58.548Z,19.76
2023-05-17T19:10:25.471Z,19.73
2023-05-17T19:12:52.462Z,19.71
2023-05-17T19:15:19.561Z,19.68
2023-05-17T19:17:46.681Z,19.66
2023-05-17T19:20:13.750Z,19.63
2023-05-17T19:22:40.666Z,19.61
2023-05-17T19:25:07.975Z,19.57
2023-05-17T19:27:37.324Z,19.54
2023-05-17T19:30:05.096Z,19.52
2023-05-17T19:32:33.326Z,19.48
2023-05-17T19:35:01.306Z,19.44
2023-05-17T19:37:28.516Z,19.41
2023-05-17T19:39:55.725Z,19.38
2023-05-17T19:42:22.696Z,19.34
2023-05-17T19:44:49.570Z,19.30
2023-05-17T19:47:17.145Z,19.27
2023-05-17T19:49:46.410Z,19.23
2023-05-17T19:52:13.295Z,19.19
2023-05-17T19:54:40.185Z,19.14
2023-05-17T19:57:11.099Z,19.14
2023-05-17T19:59:39.485Z,19.19
2023-05-17T20:02:06.879Z,19.21
2023-05-17T20:04:33.903Z,19.20
2023-05-17T20:07:00.858Z,19.18
2023-05-17T20:09:30.412Z,19.15
2023-05-17T20:11:57.757Z,19.10
2023-05-17T20:14:24.681Z,19.05
2023-05-17T20:16:51.867Z,19.00
2023-05-17T20:19:18.961Z,18.94
2023-05-17T20:21:45.996Z,18.94
2023-05-17T20:24:12.926Z,18.96
2023-05-17T20:28:11.011Z,18.98
2023-05-17T20:30:38.018Z,18.93
2023-05-17T20:33:04.968Z,18.89
2023-05-17T20:35:32.046Z,18.82
2023-05-17T20:37:59.111Z,18.76
2023-05-17T20:40:26.431Z,18.68
2023-05-17T20:42:53.623Z,18.61
2023-05-17T20:45:21.777Z,18.58
2023-05-17T20:47:48.894Z,18.59
2023-05-17T20:50:17.463Z,18.57
2023-05-17T20:52:45.642Z,18.55
2023-05-17T20:55:12.542Z,18.52
2023-05-17T20:57:39.495Z,18.51
2023-05-17T21:00:09.362Z,18.47
2023-05-17T21:02:36.452Z,18.45
2023-05-17T21:05:03.468Z,18.47
2023-05-17T21:07:30.412Z,18.50
2023-05-17T21:09:57.502Z,18.51
2023-05-17T21:12:24.526Z,18.52
2023-05-17T21:15:03.601Z,18.51
2023-05-17T21:17:35.256Z,18.49
2023-05-17T21:20:02.263Z,18.47
2023-05-17T21:22:29.278Z,18.45
2023-05-17T21:24:56.191Z,18.46
2023-05-17T21:27:23.374Z,18.50
2023-05-17T21:29:50.358Z,18.50
2023-05-17T21:32:17.284Z,18.49
2023-05-17T21:34:45.135Z,18.46
2023-05-17T21:37:12.412Z,18.42
2023-05-17T21:39:39.304Z,18.38
2023-05-17T21:42:06.298Z,18.39
2023-05-17T21:44:33.156Z,18.40
2023-05-17T21:47:00.319Z,18.37
2023-05-17T21:49:28.674Z,18.32
2023-05-17T21:51:55.579Z,18.26
2023-05-17T21:54:24.300Z,18.20
2023-05-17T21:56:51.600Z,18.14
2023-05-17T21:59:18.792Z,18.11
2023-05-17T22:01:46.013Z,18.13
2023-05-17T22:04:13.309Z,18.13
2023-05-17T22:06:40.302Z,18.11
2023-05-17T22:09:07.297Z,18.08
2023-05-17T22:11:38.431Z,18.03
2023-05-17T22:14:08.267Z,18.03
2023-05-17T22:16:35.924Z,18.06
2023-05-17T22:19:04.005Z,18.08
2023-05-17T22:21:32.144Z,18.06
2023-05-17T22:23:59.349Z,18.03
2023-05-17T22:26:27.909Z,17.99
2023-05-17T22:28:55.928Z,17.96
2023-05-17T22:31:23.190Z,17.97
2023-05-17T22:33:52.260Z,17.99
2023-05-17T22:36:19.670Z,17.99
2023-05-17T22:38:46.773Z,17.98
2023-05-17T22:41:13.759Z,17.95
2023-05-17T22:43:40.684Z,17.91
2023-05-17T22:46:07.676Z,17.88
2023-05-17T22:48:37.530Z,17.90
2023-05-17T22:51:04.792Z,17.90
2023-05-17T22:53:32.073Z,17.84
2023-05-17T22:55:59.078Z,17.80
2023-05-17T22:58:26.037Z,17.77
2023-05-17T23:00:53.347Z,17.79
2023-05-17T23:03:20.708Z,17.83
2023-05-17T23:05:48.032Z,17.81
2023-05-17T23:08:17.927Z,17.78
2023-05-17T23:10:49.983Z,17.74
2023-05-17T23:13:18.009Z,17.70
2023-05-17T23:15:46.380Z,17.71
2023-05-17T23:18:13.327Z,17.75
2023-05-17T23:20:40.407Z,17.76
2023-05-17T23:23:08.539Z,17.72
2023-05-17T23:25:37.416Z,17.68
2023-05-17T23:28:04.760Z,17.65
2023-05-17T23:30:32.653Z,17.65
2023-05-17T23:33:00.341Z,17.63
2023-05-17T23:35:27.746Z,17.59
2023-05-17T23:37:54.994Z,17.56
2023-05-17T23:40:22.108Z,17.52
2023-05-17T23:42:49.041Z,17.52
2023-05-17T23:45:16.163Z,17.53
2023-05-17T23:47:43.262Z,17.52
2023-05-17T23:50:10.875Z,17.49
2023-05-17T23:52:41.249Z,17.47
2023-05-17T23:55:09.107Z,17.49
2023-05-17T23:57:36.100Z,17.53
